Time;durP1;ratioP1;P1;durP2;ratioP2;P2;SDS_P1;SDS_P2;PMS_P1;PMS_P2;Temp;Humidity;BMP_temperature;BMP_pressure;BME280_temperature;BME280_humidity;BME280_pressure;Samples;Min_cycle;Max_cycle;Signal;HPM_P1;HPM_P2
2021/01/07 00:01:30;;;;;;;3.47;1.85;;;4.50;85.70;;;;;;5032341;28;20050;-81
2021/01/07 00:03:55;;;;;;;4.63;1.83;;;4.50;85.70;;;;;;5013571;28;20511;-82
2021/01/07 00:06:21;;;;;;;3.30;1.90;;;4.40;85.70;;;;;;5014849;28;20108;-83
2021/01/07 00:08:46;;;;;;;5.93;1.73;;;4.40;85.80;;;;;;5014250;28;20478;-83
2021/01/07 00:11:12;;;;;;;3.45;1.83;;;4.30;86.00;;;;;;5013836;28;20116;-82
2021/01/07 00:13:38;;;;;;;7.32;2.33;;;4.40;86.00;;;;;;5032141;28;20029;-81
2021/01/07 00:16:05;;;;;;;2.25;1.83;;;4.40;86.00;;;;;;5014107;28;20018;-82
2021/01/07 00:18:32;;;;;;;3.47;1.85;;;4.30;86.00;;;;;;5031372;28;20088;-82
2021/01/07 00:20:58;;;;;;;4.57;1.90;;;4.30;86.10;;;;;;5014114;28;20478;-81
2021/01/07 00:23:24;;;;;;;3.97;1.80;;;4.30;86.20;;;;;;5014328;28;20021;-82
2021/01/07 00:25:52;;;;;;;5.25;2.05;;;4.20;86.20;;;;;;5014137;28;20367;-82
2021/01/07 00:28:18;;;;;;;5.32;2.22;;;4.30;86.30;;;;;;5015001;28;20128;-81
2021/01/07 00:30:45;;;;;;;5.15;1.95;;;4.20;86.30;;;;;;5014564;28;20068;-83
2021/01/07 00:33:13;;;;;;;4.45;1.95;;;4.20;86.30;;;;;;5032866;28;20033;-82
2021/01/07 00:35:39;;;;;;;3.38;1.73;;;4.20;86.40;;;;;;5032730;28;20017;-82
2021/01/07 00:38:05;;;;;;;2.50;1.38;;;4.10;86.50;;;;;;5014329;28;20029;-82
2021/01/07 00:40:32;;;;;;;4.93;2.40;;;4.10;86.50;;;;;;5014764;28;20116;-82
2021/01/07 00:42:58;;;;;;;7.78;2.70;;;4.10;86.50;;;;;;5031869;28;20022;-82
2021/01/07 00:45:23;;;;;;;3.22;1.52;;;4.10;86.40;;;;;;5015045;28;20366;-82
2021/01/07 00:47:49;;;;;;;4.03;1.98;;;4.10;86.50;;;;;;5014669;28;20021;-83
2021/01/07 00:50:15;;;;;;;3.08;1.48;;;4.10;86.50;;;;;;5032200;28;20051;-81
2021/01/07 00:52:41;;;;;;;4.32;1.85;;;4.00;86.60;;;;;;5033461;28;20071;-82
2021/01/07 00:55:08;;;;;;;4.32;1.95;;;4.00;86.70;;;;;;5040510;28;20026;-81
2021/01/07 00:57:33;;;;;;;2.40;1.42;;;4.00;86.60;;;;;;5039257;28;20029;-81
2021/01/07 00:59:59;;;;;;;2.35;1.63;;;4.10;86.50;;;;;;5022666;28;20017;-81
2021/01/07 01:02:25;;;;;;;6.28;2.05;;;4.10;86.50;;;;;;5046354;28;20058;-81
2021/01/07 01:04:51;;;;;;;4.22;1.80;;;4.10;86.50;;;;;;5027270;28;20013;-81
2021/01/07 01:07:16;;;;;;;3.85;2.38;;;4.10;86.30;;;;;;5041577;28;20021;-81
2021/01/07 01:09:42;;;;;;;3.97;1.85;;;4.20;86.10;;;;;;5032811;28;20026;-81
2021/01/07 01:12:08;;;;;;;4.88;2.03;;;4.20;86.00;;;;;;5032171;28;20029;-82
2021/01/07 01:14:34;;;;;;;3.30;1.63;;;4.30;85.90;;;;;;5015652;28;20024;-81
2021/01/07 01:17:00;;;;;;;4.03;1.90;;;4.20;85.80;;;;;;5016783;28;20022;-81
2021/01/07 01:19:25;;;;;;;5.22;2.25;;;4.20;85.90;;;;;;5018600;28;20037;-81
2021/01/07 01:21:52;;;;;;;3.63;2.00;;;4.10;86.10;;;;;;5033379;28;20036;-81
2021/01/07 01:24:18;;;;;;;4.43;1.80;;;4.00;86.30;;;;;;5021147;28;20028;-82
2021/01/07 01:26:44;;;;;;;3.00;1.42;;;4.00;86.50;;;;;;5022935;28;20017;-82
2021/01/07 01:29:10;;;;;;;4.80;1.40;;;3.90;86.60;;;;;;5017758;28;20017;-81
2021/01/07 01:31:39;;;;;;;3.15;1.77;;;3.90;86.60;;;;;;5018176;28;20479;-81
2021/01/07 01:34:06;;;;;;;4.57;2.03;;;4.00;86.70;;;;;;5035091;28;20539;-81
2021/01/07 01:36:32;;;;;;;3.42;1.63;;;4.00;86.50;;;;;;5035802;28;20521;-81
2021/01/07 01:38:58;;;;;;;3.70;1.88;;;4.10;86.30;;;;;;5017248;28;20018;-79
2021/01/07 01:41:24;;;;;;;2.58;1.50;;;4.20;86.20;;;;;;5017960;28;20024;-80
2021/01/07 01:43:50;;;;;;;5.18;1.65;;;4.20;86.20;;;;;;5035190;28;20111;-81
2021/01/07 01:46:15;;;;;;;4.35;1.77;;;4.20;86.20;;;;;;5017623;28;20044;-80
2021/01/07 01:48:41;;;;;;;5.60;1.70;;;4.20;86.10;;;;;;5017749;28;20013;-80
2021/01/07 01:51:10;;;;;;;4.82;1.70;;;4.30;86.10;;;;;;5034743;28;20111;-81
2021/01/07 01:53:37;;;;;;;4.13;1.90;;;4.30;86.00;;;;;;5035554;28;20113;-81
2021/01/07 01:56:05;;;;;;;7.05;2.20;;;4.30;85.90;;;;;;5017273;28;20075;-80
2021/01/07 01:58:37;;;;;;;6.00;2.20;;;4.30;85.90;;;;;;5017698;28;20108;-80
2021/01/07 02:01:02;;;;;;;2.80;1.85;;;4.30;85.90;;;;;;5017375;28;20044;-80
2021/01/07 02:03:28;;;;;;;4.38;2.60;;;4.30;86.00;;;;;;5017536;28;20442;-80
2021/01/07 02:05:56;;;;;;;7.35;2.47;;;4.30;86.10;;;;;;5035255;28;20072;-81
2021/01/07 02:08:22;;;;;;;4.53;1.83;;;4.30;86.20;;;;;;5035287;28;20017;-82
2021/01/07 02:10:48;;;;;;;6.35;1.90;;;4.20;86.20;;;;;;5035038;28;20021;-81
2021/01/07 02:13:13;;;;;;;5.75;2.38;;;4.20;86.20;;;;;;5034497;28;20030;-81
2021/01/07 02:15:40;;;;;;;4.10;2.10;;;4.30;86.20;;;;;;5033978;28;20073;-81
2021/01/07 02:18:08;;;;;;;3.83;2.10;;;4.30;86.00;;;;;;5034442;28;20022;-80
2021/01/07 02:20:34;;;;;;;6.13;2.63;;;4.30;86.00;;;;;;5034977;28;20024;-81
2021/01/07 02:22:59;;;;;;;5.47;2.40;;;4.30;86.10;;;;;;5033067;28;20067;-81
2021/01/07 02:25:25;;;;;;;5.75;2.28;;;4.40;86.10;;;;;;5035030;28;20053;-81
2021/01/07 02:27:51;;;;;;;5.05;2.70;;;4.40;86.00;;;;;;5034550;28;20029;-80
2021/01/07 02:30:18;;;;;;;9.10;2.67;;;4.40;85.90;;;;;;5034433;28;20017;-81
2021/01/07 02:32:45;;;;;;;4.13;2.30;;;4.40;85.90;;;;;;5016833;28;20026;-81
2021/01/07 02:35:11;;;;;;;6.07;2.53;;;4.50;86.10;;;;;;5016005;28;20021;-82
2021/01/07 02:37:38;;;;;;;6.85;2.47;;;4.50;85.90;;;;;;5016559;28;20466;-82
2021/01/07 02:40:05;;;;;;;6.50;2.30;;;4.50;85.80;;;;;;5016439;28;20063;-81
2021/01/07 02:42:31;;;;;;;7.28;2.40;;;4.50;85.80;;;;;;5034512;28;20092;-81
2021/01/07 02:44:56;;;;;;;7.32;3.20;;;4.50;85.80;;;;;;5016483;28;20107;-82
2021/01/07 02:47:22;;;;;;;5.72;2.65;;;4.50;85.90;;;;;;5034680;28;20017;-83
2021/01/07 02:49:49;;;;;;;7.18;2.92;;;4.50;85.90;;;;;;5016535;28;20069;-81
2021/01/07 02:52:14;;;;;;;6.78;2.50;;;4.50;85.90;;;;;;5033763;28;20502;-81
2021/01/07 02:54:40;;;;;;;4.30;2.72;;;4.50;86.00;;;;;;5033480;28;20040;-82
2021/01/07 02:57:06;;;;;;;10.05;2.97;;;4.50;86.10;;;;;;5034701;28;20021;-82
2021/01/07 02:59:31;;;;;;;7.63;3.33;;;4.50;86.00;;;;;;5017401;28;20048;-82
2021/01/07 03:01:57;;;;;;;7.75;3.80;;;4.50;86.20;;;;;;5035194;28;20450;-82
2021/01/07 03:04:22;;;;;;;7.30;2.95;;;4.50;86.80;;;;;;5037129;28;20079;-82
2021/01/07 03:06:48;;;;;;;6.13;3.00;;;4.50;86.20;;;;;;5046608;28;20017;-82
2021/01/07 03:09:14;;;;;;;7.07;2.50;;;4.50;86.20;;;;;;5054767;28;20025;-81
2021/01/07 03:11:40;;;;;;;5.32;2.67;;;4.50;86.30;;;;;;5053802;28;20021;-82
2021/01/07 03:14:06;;;;;;;7.22;3.55;;;4.50;86.20;;;;;;5021482;28;20066;-82
2021/01/07 03:16:31;;;;;;;7.50;2.72;;;4.50;86.20;;;;;;5034127;28;20014;-80
2021/01/07 03:18:57;;;;;;;3.92;2.00;;;4.50;86.20;;;;;;5033898;28;20032;-81
2021/01/07 03:21:23;;;;;;;8.02;3.05;;;4.50;86.20;;;;;;5016027;28;20026;-81
2021/01/07 03:23:48;;;;;;;5.82;2.42;;;4.50;86.30;;;;;;5016251;28;20024;-80
2021/01/07 03:26:15;;;;;;;5.30;2.22;;;4.50;86.40;;;;;;5034222;28;20049;-81
2021/01/07 03:28:41;;;;;;;6.15;2.20;;;4.50;86.40;;;;;;5032355;28;20103;-81
2021/01/07 03:31:07;;;;;;;7.13;2.42;;;4.50;86.60;;;;;;5015184;28;20021;-81
2021/01/07 03:33:33;;;;;;;3.85;2.28;;;4.50;86.70;;;;;;5015895;28;20056;-81
2021/01/07 03:36:00;;;;;;;5.43;2.38;;;4.40;86.70;;;;;;5031865;28;20041;-83
2021/01/07 03:38:26;;;;;;;7.63;2.78;;;4.50;86.70;;;;;;5032341;28;20083;-80
2021/01/07 03:40:51;;;;;;;6.47;2.58;;;4.40;86.60;;;;;;5033633;28;20021;-80
2021/01/07 03:43:17;;;;;;;5.75;2.63;;;4.40;86.70;;;;;;5031851;28;20197;-81
2021/01/07 03:45:43;;;;;;;7.70;3.45;;;4.40;86.70;;;;;;5032710;28;20447;-80
2021/01/07 03:48:08;;;;;;;6.85;2.53;;;4.40;86.80;;;;;;5032182;28;20063;-81
2021/01/07 03:50:34;;;;;;;6.38;3.00;;;4.40;86.80;;;;;;5033718;28;20049;-81
2021/01/07 03:53:00;;;;;;;5.60;2.38;;;4.40;86.80;;;;;;5036120;28;20079;-82
2021/01/07 03:55:25;;;;;;;5.72;2.45;;;4.40;86.80;;;;;;5016463;28;20021;-81
2021/01/07 03:57:51;;;;;;;5.40;2.50;;;4.30;86.80;;;;;;5015076;28;20451;-82
2021/01/07 04:00:17;;;;;;;3.30;1.77;;;4.40;86.90;;;;;;5030781;28;20451;-80
2021/01/07 04:02:43;;;;;;;4.78;2.20;;;4.40;86.90;;;;;;5032165;28;20029;-81
2021/01/07 04:05:09;;;;;;;5.63;2.40;;;4.40;86.90;;;;;;5013490;28;20473;-82
2021/01/07 04:07:37;;;;;;;6.93;2.03;;;4.40;86.80;;;;;;5014477;28;20018;-82
2021/01/07 04:10:07;;;;;;;5.45;2.53;;;4.40;86.70;;;;;;5014024;28;20108;-82
2021/01/07 04:12:35;;;;;;;5.70;2.95;;;4.40;86.80;;;;;;5032151;28;20083;-81
2021/01/07 04:15:06;;;;;;;8.32;2.67;;;4.40;86.70;;;;;;5014033;28;20163;-82
2021/01/07 04:17:32;;;;;;;7.32;2.55;;;4.50;86.70;;;;;;5014554;28;20017;-81
2021/01/07 04:19:57;;;;;;;4.45;2.25;;;4.50;86.60;;;;;;5014700;28;20071;-81
2021/01/07 04:22:23;;;;;;;5.50;1.95;;;4.40;86.50;;;;;;5031853;28;20022;-81
2021/01/07 04:24:49;;;;;;;5.22;1.73;;;4.50;86.50;;;;;;5048068;28;20017;-81
2021/01/07 04:27:15;;;;;;;3.53;1.95;;;4.50;86.60;;;;;;5032409;28;20095;-81
2021/01/07 04:29:43;;;;;;;4.18;1.50;;;4.50;86.60;;;;;;5014904;28;20101;-81
2021/01/07 04:32:08;;;;;;;3.95;1.58;;;4.50;86.60;;;;;;5030890;28;20024;-81
2021/01/07 04:34:34;;;;;;;3.33;1.85;;;4.40;86.50;;;;;;5047681;28;20367;-81
2021/01/07 04:37:00;;;;;;;4.07;1.83;;;4.50;86.50;;;;;;5014917;28;20049;-81
2021/01/07 04:39:25;;;;;;;4.25;1.83;;;4.50;86.50;;;;;;5032305;28;20421;-81
2021/01/07 04:41:51;;;;;;;5.88;2.38;;;4.50;86.50;;;;;;5032608;28;20033;-81
2021/01/07 04:44:17;;;;;;;5.25;2.67;;;4.50;86.60;;;;;;5047644;28;20018;-81
2021/01/07 04:46:43;;;;;;;5.88;2.72;;;4.50;86.60;;;;;;5034556;28;20022;-81
2021/01/07 04:49:09;;;;;;;7.88;2.95;;;4.50;86.60;;;;;;5059774;28;20374;-80
2021/01/07 04:51:35;;;;;;;6.05;2.20;;;4.40;86.70;;;;;;5040251;28;20038;-80
2021/01/07 04:54:01;;;;;;;3.67;2.22;;;4.40;86.80;;;;;;5032893;28;20026;-81
2021/01/07 04:56:26;;;;;;;8.85;3.55;;;4.40;86.80;;;;;;5021195;28;20108;-80
2021/01/07 04:58:52;;;;;;;7.97;2.83;;;4.40;86.80;;;;;;5034776;28;20447;-80
2021/01/07 05:01:17;;;;;;;8.02;2.92;;;4.40;86.70;;;;;;5045582;28;20078;-81
2021/01/07 05:03:45;;;;;;;6.50;3.05;;;4.40;86.70;;;;;;5051584;28;20021;-82
2021/01/07 05:06:12;;;;;;;7.68;2.63;;;4.40;86.80;;;;;;5018065;28;20022;-81
2021/01/07 05:08:37;;;;;;;7.35;3.17;;;4.40;86.80;;;;;;5018555;28;20469;-81
2021/01/07 05:11:03;;;;;;;10.20;3.35;;;4.40;86.80;;;;;;5018456;28;20021;-80
2021/01/07 05:13:29;;;;;;;7.47;2.65;;;4.40;86.90;;;;;;5036204;28;20395;-81
2021/01/07 05:15:54;;;;;;;6.15;3.38;;;4.40;86.90;;;;;;5036578;28;20052;-81
2021/01/07 05:18:20;;;;;;;9.90;3.20;;;4.30;86.90;;;;;;5014462;28;20071;-75
2021/01/07 05:20:45;;;;;;;8.18;2.75;;;4.30;87.00;;;;;;5032970;28;20462;-74
2021/01/07 05:23:11;;;;;;;9.30;3.33;;;4.40;86.90;;;;;;5032912;28;20060;-75
2021/01/07 05:25:42;;;;;;;8.45;3.45;;;4.40;86.90;;;;;;5015405;28;20517;-74
2021/01/07 05:28:08;;;;;;;5.97;2.83;;;4.30;86.90;;;;;;5032888;28;20025;-76
2021/01/07 05:30:35;;;;;;;9.00;2.95;;;4.40;87.00;;;;;;5047858;28;20455;-75
2021/01/07 05:33:04;;;;;;;7.00;3.42;;;4.40;86.90;;;;;;5014971;28;20036;-75
2021/01/07 05:35:30;;;;;;;7.35;3.13;;;4.40;86.80;;;;;;5014446;28;20016;-74
2021/01/07 05:38:01;;;;;;;9.50;3.72;;;4.40;86.70;;;;;;5015116;28;20021;-74
2021/01/07 05:40:27;;;;;;;7.07;2.72;;;4.50;86.80;;;;;;5032234;28;20534;-74
2021/01/07 05:42:59;;;;;;;8.40;3.00;;;4.50;86.80;;;;;;5032350;28;20072;-75
2021/01/07 05:45:34;;;;;;;;;;;4.50;86.80;;;;;;5031038;28;20080;-75
2021/01/07 05:48:01;;;;;;;4.70;2.10;;;4.40;86.70;;;;;;5032557;28;19908;-76
2021/01/07 05:50:29;;;;;;;8.38;3.10;;;4.50;86.80;;;;;;5031834;28;20677;-76
2021/01/07 05:52:55;;;;;;;7.57;2.42;;;4.50;86.70;;;;;;5032607;28;20032;-76
2021/01/07 05:55:20;;;;;;;7.43;2.38;;;4.50;86.70;;;;;;5031954;28;20030;-76
2021/01/07 05:57:46;;;;;;;5.22;2.10;;;4.50;86.80;;;;;;5014466;28;20029;-77
2021/01/07 06:00:17;;;;;;;6.75;2.15;;;4.50;86.90;;;;;;5016419;28;20017;-75
2021/01/07 06:02:44;;;;;;;5.80;2.30;;;4.50;87.10;;;;;;5017635;28;20021;-76
2021/01/07 06:05:15;;;;;;;5.72;1.90;;;4.50;87.00;;;;;;5016444;28;20016;-77
2021/01/07 06:07:42;;;;;;;5.53;2.22;;;4.60;87.00;;;;;;5016827;28;20018;-76
2021/01/07 06:10:10;;;;;;;5.25;1.80;;;4.60;87.00;;;;;;5034688;28;20099;-77
2021/01/07 06:12:36;;;;;;;4.90;2.15;;;4.60;87.00;;;;;;5034890;28;20035;-77
2021/01/07 06:15:08;;;;;;;3.50;1.92;;;4.60;86.90;;;;;;5034995;28;20021;-77
2021/01/07 06:17:37;;;;;;;8.13;2.72;;;4.60;86.90;;;;;;5049737;28;20013;-76
2021/01/07 06:20:15;;;;;;;3.72;2.13;;;4.50;87.00;;;;;;5016543;28;20025;-76
2021/01/07 06:22:48;;;;;;;3.05;1.88;;;4.60;87.10;;;;;;5017396;28;20024;-76
2021/01/07 06:25:15;;;;;;;3.72;2.40;;;4.60;87.10;;;;;;5034369;28;20025;-77
2021/01/07 06:27:44;;;;;;;4.07;1.88;;;4.60;87.10;;;;;;5016486;28;20017;-76
2021/01/07 06:30:10;;;;;;;6.00;2.72;;;4.60;87.10;;;;;;5034330;28;20450;-88
2021/01/07 06:32:37;;;;;;;4.30;2.30;;;4.60;87.20;;;;;;5034277;28;20028;-77
2021/01/07 06:35:08;;;;;;;4.05;2.10;;;4.60;87.30;;;;;;5016979;28;20100;-76
2021/01/07 06:37:36;;;;;;;3.83;2.03;;;4.60;87.30;;;;;;5034246;28;20029;-77
2021/01/07 06:40:04;;;;;;;5.82;2.67;;;4.50;87.30;;;;;;5034497;28;20022;-76
2021/01/07 06:42:43;;;;;;;6.30;2.20;;;4.50;87.40;;;;;;5049341;28;20021;-76
2021/01/07 06:45:11;;;;;;;7.57;2.83;;;4.60;87.50;;;;;;5034657;28;20021;-76
2021/01/07 06:47:43;;;;;;;5.95;2.60;;;4.50;87.40;;;;;;5034457;28;20040;-76
2021/01/07 06:50:14;;;;;;;7.80;3.35;;;4.50;88.10;;;;;;5010845;28;20038;-75
2021/01/07 06:52:44;;;;;;;11.68;3.47;;;4.60;87.50;;;;;;5013152;28;20379;-76
2021/01/07 06:55:15;;;;;;;6.47;2.60;;;4.50;87.40;;;;;;5014126;28;20068;-75
2021/01/07 06:57:55;;;;;;;6.20;2.70;;;4.50;87.50;;;;;;5013940;28;20457;-76
2021/01/07 07:00:23;;;;;;;4.55;2.63;;;4.50;87.60;;;;;;5013907;28;20026;-76
2021/01/07 07:03:01;;;;;;;5.60;3.28;;;4.50;87.70;;;;;;5014411;28;20026;-76
2021/01/07 07:05:35;;;;;;;7.72;2.60;;;4.50;87.80;;;;;;5013885;28;20104;-76
2021/01/07 07:08:07;;;;;;;6.53;3.13;;;4.50;87.70;;;;;;5014359;28;20033;-75
2021/01/07 07:10:32;;;;;;;6.78;2.90;;;4.50;87.70;;;;;;5013568;28;20022;-74
2021/01/07 07:12:59;;;;;;;6.50;2.60;;;4.50;87.70;;;;;;5013999;28;20104;-76
2021/01/07 07:15:27;;;;;;;4.10;2.30;;;4.50;87.80;;;;;;5012556;28;20059;-75
2021/01/07 07:17:55;;;;;;;3.92;2.05;;;4.50;88.40;;;;;;5014067;28;20014;-76
2021/01/07 07:20:22;;;;;;;5.93;2.83;;;4.50;87.90;;;;;;5012254;28;20018;-75
2021/01/07 07:22:48;;;;;;;4.28;2.10;;;4.50;88.00;;;;;;5012524;28;20022;-76
2021/01/07 07:25:28;;;;;;;6.30;2.80;;;4.50;88.70;;;;;;5013733;28;20062;-75
2021/01/07 07:27:56;;;;;;;6.20;2.83;;;4.40;88.10;;;;;;5012419;28;20060;-76
2021/01/07 07:30:26;;;;;;;3.78;1.90;;;4.50;88.20;;;;;;5012289;28;20025;-76
2021/01/07 07:32:53;;;;;;;4.37;2.00;;;4.50;88.00;;;;;;5013546;28;20038;-76
2021/01/07 07:35:32;;;;;;;7.38;2.25;;;4.50;88.10;;;;;;5013297;28;20017;-76
2021/01/07 07:37:58;;;;;;;5.40;2.08;;;4.50;88.20;;;;;;5012590;28;20344;-75
2021/01/07 07:40:40;;;;;;;2.45;1.38;;;4.50;88.10;;;;;;5012240;28;20025;-76
2021/01/07 07:43:08;;;;;;;4.32;1.70;;;4.50;88.10;;;;;;5013141;28;20453;-76
2021/01/07 07:45:35;;;;;;;5.25;2.17;;;4.40;88.20;;;;;;5013140;28;20101;-76
2021/01/07 07:48:01;;;;;;;5.13;2.15;;;4.50;88.30;;;;;;5013154;28;20014;-76
2021/01/07 07:50:29;;;;;;;5.22;2.58;;;4.50;88.20;;;;;;5011427;28;20041;-77
2021/01/07 07:53:07;;;;;;;4.93;2.03;;;4.50;88.20;;;;;;5013351;28;20025;-78
2021/01/07 07:55:37;;;;;;;5.88;2.00;;;4.50;88.10;;;;;;5012868;28;20028;-76
2021/01/07 07:58:12;;;;;;;5.85;2.72;;;4.50;88.00;;;;;;5013154;28;20018;-76
2021/01/07 08:00:39;;;;;;;4.57;2.38;;;4.50;88.00;;;;;;5013112;28;20022;-76
2021/01/07 08:03:04;;;;;;;6.47;3.00;;;4.50;88.10;;;;;;5013758;28;20469;-76
2021/01/07 08:05:32;;;;;;;8.05;3.22;;;4.50;88.10;;;;;;5011311;28;20018;-76
2021/01/07 08:07:58;;;;;;;5.25;2.45;;;4.50;88.10;;;;;;5013009;28;20061;-76
2021/01/07 08:10:25;;;;;;;5.28;2.03;;;4.50;88.10;;;;;;5011326;28;20013;-77
2021/01/07 08:12:52;;;;;;;3.50;1.92;;;4.50;88.20;;;;;;5012769;28;20041;-76
2021/01/07 08:15:27;;;;;;;5.13;2.45;;;4.50;88.30;;;;;;5012855;28;20022;-75
2021/01/07 08:17:53;;;;;;;6.55;2.28;;;4.50;88.30;;;;;;5012762;28;20009;-77
2021/01/07 08:20:23;;;;;;;9.00;2.70;;;4.50;88.30;;;;;;5012275;28;20045;-88
2021/01/07 08:22:50;;;;;;;5.70;2.78;;;4.50;88.30;;;;;;5012743;28;20021;-77
2021/01/07 08:25:32;;;;;;;6.05;2.17;;;4.50;88.30;;;;;;5013093;28;20463;-77
2021/01/07 08:28:24;;;;;;;4.90;2.20;;;4.60;88.30;;;;;;5012716;28;20014;-77
2021/01/07 08:30:54;;;;;;;7.30;2.75;;;4.60;88.20;;;;;;5026587;28;20143;-76
2021/01/07 08:33:23;;;;;;;5.95;2.22;;;4.60;88.30;;;;;;5012201;28;20034;-81
2021/01/07 08:35:49;;;;;;;4.82;2.30;;;4.60;88.30;;;;;;5012470;28;20109;-76
2021/01/07 08:38:26;;;;;;;3.80;2.17;;;4.60;88.30;;;;;;5012594;28;20014;-76
2021/01/07 08:40:54;;;;;;;4.82;2.50;;;4.60;88.40;;;;;;5011665;28;20356;-76
2021/01/07 08:43:20;;;;;;;4.22;2.10;;;4.60;88.30;;;;;;5012776;28;20022;-77
2021/01/07 08:45:45;;;;;;;6.90;3.00;;;4.60;88.30;;;;;;5011727;28;20121;-77
2021/01/07 08:48:11;;;;;;;8.32;2.83;;;4.60;88.30;;;;;;5011455;28;20022;-76
2021/01/07 08:50:38;;;;;;;5.10;2.45;;;4.60;88.40;;;;;;5019258;28;20136;-76
2021/01/07 08:53:08;;;;;;;6.63;2.55;;;4.60;89.00;;;;;;5032199;28;20037;-77
2021/01/07 08:56:04;;;;;;;7.57;2.58;;;4.60;88.50;;;;;;5013882;28;20022;-77
2021/01/07 08:58:29;;;;;;;6.45;2.88;;;4.70;88.60;;;;;;5018785;28;20053;-76
2021/01/07 09:00:55;;;;;;;6.50;2.50;;;4.60;88.60;;;;;;5032179;28;20056;-76
2021/01/07 09:03:21;;;;;;;5.78;2.72;;;4.60;88.60;;;;;;5031799;28;20021;-75
2021/01/07 09:05:47;;;;;;;6.70;3.22;;;4.70;88.70;;;;;;5014469;28;20017;-76
2021/01/07 09:08:14;;;;;;;6.47;2.70;;;4.70;88.70;;;;;;5032144;28;20018;-76
2021/01/07 09:10:41;;;;;;;7.30;2.80;;;4.70;88.70;;;;;;5014004;28;20045;-76
2021/01/07 09:13:16;;;;;;;6.35;2.63;;;4.70;89.10;;;;;;5014384;28;20412;-76
2021/01/07 09:15:42;;;;;;;5.28;2.40;;;4.70;88.80;;;;;;5013918;28;20375;-76
2021/01/07 09:18:08;;;;;;;8.55;2.53;;;4.70;88.70;;;;;;5047248;28;20452;-76
2021/01/07 09:20:34;;;;;;;6.78;2.20;;;4.70;88.70;;;;;;5046597;28;20013;-76
2021/01/07 09:23:08;;;;;;;4.85;2.65;;;4.80;88.80;;;;;;5031939;28;20029;-76
2021/01/07 09:25:34;;;;;;;7.95;2.70;;;4.80;88.80;;;;;;5031477;28;20131;-76
2021/01/07 09:28:01;;;;;;;5.10;2.50;;;4.80;88.80;;;;;;5032074;28;20021;-76
2021/01/07 09:30:27;;;;;;;4.70;2.03;;;4.80;88.90;;;;;;5031576;28;20025;-77
2021/01/07 09:32:54;;;;;;;5.10;3.10;;;4.80;88.90;;;;;;5031693;28;20088;-76
2021/01/07 09:35:20;;;;;;;5.65;2.03;;;4.80;89.00;;;;;;5031960;28;20021;-76
2021/01/07 09:37:45;;;;;;;6.80;3.00;;;4.80;89.00;;;;;;5031444;28;20025;-77
2021/01/07 09:40:12;;;;;;;5.18;2.65;;;4.80;88.90;;;;;;5013895;28;20481;-76
2021/01/07 09:42:37;;;;;;;5.80;3.03;;;4.90;88.90;;;;;;5031459;28;20014;-76
2021/01/07 09:45:05;;;;;;;6.68;2.58;;;4.90;89.00;;;;;;5034772;28;20103;-76
2021/01/07 09:47:31;;;;;;;4.22;2.22;;;4.90;89.10;;;;;;5035362;28;20018;-76
2021/01/07 09:49:58;;;;;;;3.58;2.22;;;4.90;89.00;;;;;;5035174;28;20076;-76
2021/01/07 09:52:24;;;;;;;5.47;2.22;;;4.90;89.00;;;;;;5035108;28;20021;-77
2021/01/07 09:54:50;;;;;;;4.80;2.55;;;4.80;89.00;;;;;;5035298;28;20017;-76
2021/01/07 09:57:16;;;;;;;3.70;1.90;;;4.80;89.30;;;;;;5017292;28;20087;-76
2021/01/07 09:59:41;;;;;;;2.80;1.55;;;4.80;89.40;;;;;;5034498;28;20027;-77
2021/01/07 10:02:09;;;;;;;3.45;1.90;;;4.80;89.50;;;;;;5050441;28;20025;-76
2021/01/07 10:04:35;;;;;;;5.00;2.80;;;4.80;89.60;;;;;;5016859;28;20021;-76
2021/01/07 10:07:02;;;;;;;7.10;2.33;;;4.80;89.70;;;;;;5035010;28;20062;-76
2021/01/07 10:09:28;;;;;;;6.07;2.00;;;4.70;89.70;;;;;;5034504;28;20013;-77
2021/01/07 10:11:56;;;;;;;3.72;1.80;;;4.80;89.90;;;;;;5034772;28;20036;-76
2021/01/07 10:14:23;;;;;;;4.47;1.85;;;4.80;89.80;;;;;;5034731;28;20155;-76
2021/01/07 10:16:53;;;;;;;4.38;1.85;;;4.80;89.80;;;;;;5016425;28;20468;-76
2021/01/07 10:19:20;;;;;;;4.97;2.40;;;4.90;89.80;;;;;;5017067;28;20025;-76
2021/01/07 10:22:14;;;;;;;6.10;1.77;;;4.90;89.70;;;;;;5034357;28;20083;-77
2021/01/07 10:24:47;;;;;;;2.90;1.75;;;4.90;89.60;;;;;;5028546;28;20030;-77
2021/01/07 10:27:14;;;;;;;4.57;1.98;;;5.00;89.60;;;;;;5016431;28;20029;-76
2021/01/07 10:29:41;;;;;;;4.28;2.40;;;5.00;89.50;;;;;;5034284;28;20024;-76
2021/01/07 10:32:10;;;;;;;5.55;1.98;;;5.00;89.40;;;;;;5034073;28;20033;-77
2021/01/07 10:34:42;;;;;;;4.45;1.95;;;5.10;89.30;;;;;;5034201;28;20056;-76
2021/01/07 10:37:09;;;;;;;3.75;2.13;;;5.10;89.30;;;;;;5016636;28;20049;-77
2021/01/07 10:39:37;;;;;;;3.70;1.60;;;5.20;89.20;;;;;;5016201;28;20339;-76
2021/01/07 10:42:09;;;;;;;2.15;1.48;;;5.20;89.10;;;;;;5034287;28;20475;-76
2021/01/07 10:44:36;;;;;;;2.92;1.67;;;5.20;89.30;;;;;;5033980;28;20021;-77
2021/01/07 10:47:05;;;;;;;2.22;1.30;;;5.20;89.30;;;;;;5016511;28;20018;-76
2021/01/07 10:49:33;;;;;;;3.05;1.67;;;5.20;89.30;;;;;;5033866;28;20082;-78
2021/01/07 10:52:08;;;;;;;3.38;1.50;;;5.20;89.30;;;;;;5034288;28;20523;-76
2021/01/07 10:54:52;;;;;;;4.53;1.80;;;5.30;89.30;;;;;;5033276;28;20090;-77
2021/01/07 10:57:27;;;;;;;4.57;1.92;;;5.30;89.20;;;;;;5034427;28;20026;-76
2021/01/07 11:00:08;;;;;;;2.78;1.40;;;5.30;89.20;;;;;;5049325;28;20143;-77
2021/01/07 11:03:00;;;;;;;3.20;1.83;;;5.30;89.30;;;;;;5033506;28;20036;-76
2021/01/07 11:05:30;;;;;;;5.03;2.10;;;5.30;89.40;;;;;;5016388;28;20013;-76
2021/01/07 11:08:39;;;;;;;3.65;2.03;;;5.30;89.40;;;;;;5034186;28;20021;-76
2021/01/07 11:11:27;;;;;;;2.35;1.38;;;5.30;89.30;;;;;;5009000;28;20080;-77
2021/01/07 11:14:03;;;;;;;2.90;1.50;;;5.30;89.30;;;;;;5015624;28;20033;-76
2021/01/07 11:17:12;;;;;;;4.20;1.70;;;5.30;89.40;;;;;;5016167;28;20071;-76
2021/01/07 11:19:38;;;;;;;5.07;1.80;;;5.40;89.50;;;;;;5015084;28;20030;-76
2021/01/07 11:22:19;;;;;;;3.28;1.55;;;5.30;89.50;;;;;;5033263;28;20112;-77
2021/01/07 11:24:47;;;;;;;4.22;1.73;;;5.40;89.60;;;;;;5015612;28;20490;-77
2021/01/07 11:27:14;;;;;;;2.53;1.67;;;5.30;89.60;;;;;;5033556;28;20104;-77
2021/01/07 11:29:40;;;;;;;2.03;1.35;;;5.30;89.80;;;;;;5015010;28;20029;-77
2021/01/07 11:32:06;;;;;;;3.15;1.13;;;5.40;89.80;;;;;;5048634;28;20029;-76
2021/01/07 11:34:33;;;;;;;3.00;1.40;;;5.40;89.70;;;;;;5033245;28;20049;-76
2021/01/07 11:37:14;;;;;;;2.33;1.35;;;5.40;89.60;;;;;;5033403;28;20018;-76
2021/01/07 11:39:57;;;;;;;2.72;1.48;;;5.40;89.60;;;;;;5032722;28;20045;-77
2021/01/07 11:42:35;;;;;;;4.30;1.40;;;5.50;89.60;;;;;;5048489;28;20442;-76
2021/01/07 11:45:19;;;;;;;3.40;1.75;;;5.40;89.70;;;;;;5033188;28;20021;-77
2021/01/07 11:47:56;;;;;;;2.97;1.42;;;5.40;89.80;;;;;;5032794;28;20022;-78
2021/01/07 11:50:26;;;;;;;2.83;1.38;;;5.40;89.90;;;;;;5015294;28;20466;-77
2021/01/07 11:52:54;;;;;;;1.75;1.20;;;5.40;90.00;;;;;;5032596;28;20025;-78
2021/01/07 11:55:22;;;;;;;2.58;1.08;;;5.40;89.90;;;;;;5033150;28;20450;-78
2021/01/07 11:57:48;;;;;;;1.38;1.05;;;5.50;90.00;;;;;;5032748;28;20014;-77
2021/01/07 12:00:18;;;;;;;1.30;1.17;;;5.50;89.90;;;;;;5015262;28;20018;-77
2021/01/07 12:02:47;;;;;;;2.03;1.50;;;5.50;89.90;;;;;;5047666;28;20036;-78
2021/01/07 12:05:14;;;;;;;2.22;1.48;;;5.50;89.90;;;;;;5033049;28;20025;-77
2021/01/07 12:08:16;;;;;;;2.22;1.13;;;5.40;89.90;;;;;;5032128;28;20105;-78
2021/01/07 12:10:44;;;;;;;2.90;1.35;;;5.40;90.00;;;;;;5014843;28;20045;-77
2021/01/07 12:13:34;;;;;;;2.28;1.40;;;5.40;90.00;;;;;;5014935;28;20025;-76
2021/01/07 12:16:00;;;;;;;1.02;0.90;;;5.40;90.30;;;;;;5032300;28;20045;-77
2021/01/07 12:18:27;;;;;;;2.17;1.15;;;5.40;90.30;;;;;;5032487;28;20378;-77
2021/01/07 12:20:53;;;;;;;6.07;1.30;;;5.40;90.10;;;;;;5032530;28;20079;-78
2021/01/07 12:23:19;;;;;;;2.22;1.20;;;5.40;90.10;;;;;;5014834;28;20025;-78
2021/01/07 12:25:48;;;;;;;1.77;1.02;;;5.40;90.20;;;;;;5032060;28;20120;-78
2021/01/07 12:28:18;;;;;;;2.80;1.58;;;5.40;90.20;;;;;;5014509;28;20025;-78
2021/01/07 12:30:46;;;;;;;2.15;1.20;;;5.40;90.20;;;;;;5014741;28;20399;-78
2021/01/07 12:33:41;;;;;;;5.03;1.40;;;5.40;90.10;;;;;;5014701;28;20367;-78
2021/01/07 12:36:25;;;;;;;6.18;2.17;;;5.50;90.10;;;;;;4978539;28;20488;-78
2021/01/07 12:39:13;;;;;;;1.88;1.10;;;5.50;90.10;;;;;;5032241;28;20021;-78
2021/01/07 12:41:50;;;;;;;2.20;1.10;;;5.50;90.10;;;;;;5047417;28;20025;-82
2021/01/07 12:44:18;;;;;;;3.35;1.02;;;5.50;90.20;;;;;;5032563;28;20013;-78
2021/01/07 12:46:50;;;;;;;2.92;1.15;;;5.40;90.20;;;;;;5014198;28;20362;-78
2021/01/07 12:49:18;;;;;;;1.35;0.88;;;5.40;90.30;;;;;;5032864;28;20489;-76
2021/01/07 12:51:48;;;;;;;2.00;1.35;;;5.40;90.40;;;;;;5032290;28;20041;-77
2021/01/07 12:54:14;;;;;;;1.88;1.00;;;5.40;90.40;;;;;;5032295;28;20026;-76
2021/01/07 12:57:11;;;;;;;1.35;1.10;;;5.40;90.40;;;;;;5014098;28;20331;-78
2021/01/07 13:00:07;;;;;;;2.35;1.05;;;5.40;90.40;;;;;;5014324;28;20014;-76
2021/01/07 13:02:58;;;;;;;2.03;1.10;;;5.40;90.40;;;;;;5032256;28;20023;-76
2021/01/07 13:05:32;;;;;;;2.40;1.58;;;5.40;90.50;;;;;;5032071;28;20023;-77
2021/01/07 13:08:03;;;;;;;0.95;0.82;;;5.40;90.50;;;;;;5031210;28;20017;-76